Flight Track Log - Related Links

Times and Time Zones

All times are in EDT time to prevent confusion due to time zone crossing. See the GJS3710 flight status page for this flight to view local times or setup timezone preferences in your user account.

Time Position Orientation Groundspeed Altitude Reporting Facility
EDT Latitude Longitude Course Direction KTS MPH feet Rate Location/Type
Tue 01:22:36 PM 39.8833 -75.2167 78° East 157 181 700  Level Philadelphia TRACON
Tue 01:24:00 PM 39.9000 -75.1167 78° East 217 250 3,500 2,000 Climbing Philadelphia TRACON
Tue 01:25:00 PM 39.9500 -75.1000 14° North 230 265 5,500 2,143 Climbing Philadelphia TRACON
Tue 01:26:06 PM 40.0167 -75.1167 349° North 257 296 8,000 2,263 Climbing Philadelphia TRACON
Tue 01:26:54 PM 40.0500 -75.1667 311° West 273 314 9,800 1,111 Climbing Philadelphia TRACON
Tue 01:27:54 PM 40.1000 -75.2667 303° West 275 316 10,000 524 Climbing Philadelphia TRACON
Tue 01:29:00 PM 40.1333 -75.3500 298° West 293 337 10,900 1,299 Climbing Philadelphia TRACON
Tue 01:30:08 PM 40.1806 -75.4656 298° West 324 373 12,900 1,453 Climbing New York Center
Tue 01:31:08 PM 40.2328 -75.5669 304° West 339 390 14,000 1,350 Climbing New York Center
Tue 01:32:08 PM 40.3161 -75.6189 335° Northwest 345 397 15,600 1,525 Climbing New York Center
Tue 01:33:06 PM 40.4094 -75.6772 335° Northwest 363 418 17,000 756 Climbing New York Center
Tue 01:34:07 PM 40.4822 -75.7864 311° West 380 437 17,100 49 Climbing New York Center
Tue 01:35:08 PM 40.4972 -75.9183 279° West 352 405 17,100 595 Level New York Center
Tue 01:36:08 PM 40.5086 -76.0394 277° West 360 414 18,300 1,322 Climbing New York Center
Tue 01:37:06 PM 40.5203 -76.1931 276° West 382 440 19,700 1,322 Climbing New York Center
Tue 01:38:06 PM 40.5328 -76.3333 277° West 388 447 20,900 1,041 Climbing New York Center
Tue 01:39:07 PM 40.5444 -76.4792 276° West 393 452 21,800 893 Climbing New York Center
Tue 01:40:07 PM 40.5581 -76.6278 277° West 403 464 22,700 900 Climbing New York Center
Tue 01:41:07 PM 40.5714 -76.7792 277° West 415 478 23,600 934 Climbing New York Center
Tue 01:42:09 PM 40.5844 -76.9308 277° West 420 483 24,600 900 Climbing New York Center
Tue 01:43:07 PM 40.5961 -77.0658 277° West 420 483 25,400 915 Climbing New York Center
Tue 01:44:07 PM 40.6086 -77.2172 276° West 420 483 26,400 1,091 Climbing New York Center
Tue 01:45:08 PM 40.6244 -77.3831 277° West 420 483 27,600 1,078 Climbing New York Center
Tue 01:47:33 PM 40.6511 -77.7506 276° West 407 468 30,100 1,024 Climbing Cleveland Center
Tue 01:48:33 PM 40.6672 -77.8978 278° West 407 468 31,100 1,000 Climbing Cleveland Center
Tue 01:49:33 PM 40.6892 -78.0419 281° West 407 468 32,100 1,000 Climbing Cleveland Center
Tue 01:50:33 PM 40.7069 -78.1836 279° West 407 468 33,100 1,000 Climbing Cleveland Center
Tue 01:51:33 PM 40.7267 -78.3281 280° West 407 468 34,100 1,000 Climbing Cleveland Center
Tue 01:52:33 PM 40.7458 -78.4672 280° West 407 468 35,100 950 Climbing Cleveland Center
Tue 01:53:33 PM 40.7650 -78.6064 280° West 401 461 36,000 450 Climbing Cleveland Center
Tue 01:54:33 PM 40.7842 -78.7458 280° West 395 455 36,000  Level Cleveland Center
Tue 01:55:33 PM 40.8031 -78.8906 280° West 395 455 36,000 150 Level Cleveland Center
Tue 01:56:33 PM 40.8236 -79.0192 282° West 395 455 36,300 650 Climbing Cleveland Center
Tue 01:57:33 PM 40.8400 -79.1586 279° West 395 455 37,300 850 Climbing Cleveland Center
Tue 01:58:33 PM 40.8606 -79.2956 281° West 389 448 38,000 350 Climbing Cleveland Center
Tue 01:59:33 PM 40.8764 -79.4325 279° West 389 448 38,000  Level Cleveland Center
Tue 02:00:33 PM 40.8944 -79.5694 280° West 389 448 38,000  Level Cleveland Center
Tue 02:01:33 PM 40.9122 -79.7094 280° West 389 448 38,000  Level Cleveland Center
Tue 02:02:33 PM 40.9278 -79.8519 278° West 389 448 38,000  Level Cleveland Center
Tue 02:03:33 PM 40.9433 -79.9894 279° West 389 448 38,000  Level Cleveland Center
Tue 02:04:33 PM 40.9606 -80.1294 279° West 389 448 38,000  Level Cleveland Center
Tue 02:05:33 PM 40.9778 -80.2697 279° West 389 448 38,000  Level Cleveland Center
Tue 02:06:33 PM 40.9947 -80.4097 279° West 389 448 38,000  Level Cleveland Center
Tue 02:08:00 PM 41.0080 -80.5992 277° West  Level FlightAware Approximate
Tue 02:08:33 PM 41.0281 -80.6906 277° West 389 448 38,000  Level Cleveland Center
Tue 02:09:33 PM 41.0467 -80.8475 279° West 389 448 38,000  Level Cleveland Center
Tue 02:10:33 PM 41.0567 -80.9878 275° West 389 448 38,000  Level Cleveland Center
Tue 02:11:33 PM 41.0622 -81.1172 273° West 389 448 38,000  Level Cleveland Center
Tue 02:12:33 PM 41.0700 -81.2606 274° West 389 448 38,000  Level Cleveland Center
Tue 02:14:00 PM 41.0815 -81.4496 275° West  Level FlightAware Approximate
Tue 02:14:33 PM 41.0867 -81.5528 275° West 389 448 38,000  Level Cleveland Center
Tue 02:15:33 PM 41.0958 -81.6936 275° West 389 448 38,000  Level Cleveland Center
Tue 02:16:33 PM 41.1047 -81.8314 275° West 384 442 38,000  Level Cleveland Center
Tue 02:17:33 PM 41.1114 -81.9667 274° West 384 442 38,000  Level Cleveland Center
Tue 02:18:33 PM 41.1222 -82.1019 276° West 379 436 38,000  Level Cleveland Center
Tue 02:19:33 PM 41.1269 -82.2261 273° West 379 436 38,000  Level Cleveland Center
Tue 02:20:33 PM 41.1353 -82.3642 275° West 379 436 38,000  Level Cleveland Center
Tue 02:21:33 PM 41.1433 -82.4994 275° West 379 436 38,000  Level Cleveland Center
Tue 02:22:33 PM 41.1494 -82.6347 273° West 372 428 38,000  Level Cleveland Center
Tue 02:23:33 PM 41.1572 -82.7756 274° West 372 428 38,000  Level Cleveland Center
Tue 02:24:33 PM 41.1625 -82.9247 273° West 372 428 38,000  Level Cleveland Center
Tue 02:25:33 PM 41.1700 -83.0603 274° West 372 428 38,000 -50 Level Cleveland Center
Tue 02:26:33 PM 41.1733 -83.1983 272° West 372 428 37,900 -300 Descending Cleveland Center
Tue 02:27:33 PM 41.1825 -83.3339 275° West 372 428 37,400 -500 Descending Cleveland Center
Tue 02:28:33 PM 41.1878 -83.4667 273° West 372 428 36,900 -500 Descending Cleveland Center
Tue 02:29:33 PM 41.1947 -83.5967 274° West 366 421 36,400 -500 Descending Cleveland Center
Tue 02:30:33 PM 41.1997 -83.7239 273° West 361 415 35,900 -500 Descending Cleveland Center
Tue 02:31:33 PM 41.2064 -83.8539 274° West 361 415 35,400 -504 Descending Cleveland Center
Tue 02:32:32 PM 41.2136 -83.9747 275° West 363 418 34,900 -496 Descending Chicago Center
Tue 02:33:34 PM 41.2194 -84.1103 273° West 373 429 34,400 -435 Descending Chicago Center
Tue 02:34:36 PM 41.2244 -84.2497 273° West 377 434 34,000 -194 Descending Chicago Center
Tue 02:35:38 PM 41.2283 -84.3878 272° West 377 434 34,000  Level Chicago Center
Tue 02:36:40 PM 41.2328 -84.5506 272° West 369 425 34,000  Level Chicago Center
Tue 02:37:42 PM 41.2369 -84.6864 272° West 368 423 34,000  Level Chicago Center
Tue 02:38:44 PM 41.2408 -84.8217 272° West 368 423 34,000  Level Chicago Center
Tue 02:39:46 PM 41.2456 -84.9572 273° West 366 421 34,000  Level Chicago Center
Tue 02:40:49 PM 41.2517 -85.0947 273° West 370 426 34,000 -48 Level Chicago Center
Tue 02:41:51 PM 41.2561 -85.2308 273° West 369 425 33,900 -484 Descending Chicago Center
Tue 02:42:53 PM 41.2614 -85.3711 273° West 372 428 33,000 -1,597 Descending Chicago Center
Tue 02:43:55 PM 41.2675 -85.5414 273° West 381 438 30,600 -2,177 Descending Chicago Center
Tue 02:44:57 PM 41.2719 -85.6875 272° West 391 450 28,500 -2,081 Descending Chicago Center
Tue 02:45:59 PM 41.2764 -85.8358 272° West 397 457 26,300 -1,694 Descending Chicago Center
Tue 02:47:01 PM 41.2803 -85.9769 272° West 386 444 25,000 -629 Descending Chicago Center
Tue 02:48:03 PM 41.3017 -86.1125 282° West 378 435 25,000 -48 Level Chicago Center
Tue 02:49:05 PM 41.3350 -86.2467 288° West 379 436 24,900 -629 Descending Chicago Center
Tue 02:50:07 PM 41.3700 -86.3836 289° West 386 444 23,700 -1,742 Descending Chicago Center
Tue 02:51:09 PM 41.4097 -86.5433 288° West 380 437 21,300 -2,129 Descending Chicago Center
Tue 02:52:11 PM 41.4406 -86.6692 288° West 371 427 19,300 -1,824 Descending Chicago Center
Tue 02:53:14 PM 41.4719 -86.7914 289° West 359 413 17,500 -2,016 Descending Chicago Center
Tue 02:54:16 PM 41.5075 -86.9367 288° West 347 399 15,100 -2,081 Descending Chicago Center
Tue 02:55:18 PM 41.5364 -87.0581 288° West 345 397 13,200 -1,452 Descending Chicago Center
Tue 02:56:20 PM 41.5639 -87.1706 288° West 325 374 12,100 -968 Descending Chicago Center
Tue 02:57:22 PM 41.6033 -87.2786 296° West 327 376 11,200 -532 Descending Chicago Center
Tue 02:58:24 PM 41.6600 -87.3700 310° West 321 369 11,000 -97 Descending Chicago Center
Tue 02:59:26 PM 41.7269 -87.4806 309° West 323 372 11,000  Level Chicago Center
Tue 03:00:28 PM 41.7858 -87.5656 313° West 318 366 11,000 -242 Level Chicago Center
Tue 03:01:30 PM 41.8519 -87.6342 322° Northwest 305 351 10,500 -1,200 Descending Chicago Center
Tue 03:02:08 PM 41.9000 -87.6833 323° Northwest 260 299 9,000 -2,020 Descending Chicago TRACON
Tue 03:03:08 PM 41.9500 -87.7333 323° Northwest 260 299 7,200 -1,000 Descending Chicago TRACON
Tue 03:04:08 PM 42.0000 -87.8167 309° West 252 290 7,000 -100 Descending Chicago TRACON
Tue 03:05:08 PM 42.0167 -87.9000 285° West 234 269 7,000  Level Chicago TRACON
Tue 03:06:09 PM 42.0333 -87.9667 289° West 191 220 7,000 -567 Level Chicago TRACON
Tue 03:07:15 PM 42.0500 -88.0500 285° West 190 219 5,800 -1,000 Descending Chicago TRACON
Tue 03:08:15 PM 42.0500 -88.1167 270° West 188 216 4,900 -867 Descending Chicago TRACON
Tue 03:08:45 PM 42.0453 -88.1339 250° West 200 230 4,500 -1,500 Descending Chicago Center
Tue 03:09:15 PM 42.0167 -88.1167 156° South 202 232 3,400 -1,143 Descending Chicago TRACON
Tue 03:10:09 PM 42.0000 -88.0667 114° Southeast 159 183 2,900 -632 Descending Chicago TRACON
Tue 03:11:09 PM 41.9833 -88.0167 114° Southeast 151 174 2,200 -750 Descending Chicago TRACON
Tue 03:12:09 PM 41.9833 -87.9667 90° East 138 159 1,400 -800 Descending Chicago TRACON
Tue 03:14:00 PM 41.9817 -87.9067 137° Southeast  Level Estimated

Login

Don't have an account? Register now (free) for customized features, flight alerts, and more!